sensor_id;sensor_type;location;lat;lon;timestamp;P1;durP1;ratioP1;P2;durP2;ratioP2
12248;SDS011;6187;50.778;6.142;2023-09-08T00:00:12;4.20;;;3.80;;
12248;SDS011;6187;50.778;6.142;2023-09-08T00:02:41;3.43;;;3.13;;
12248;SDS011;6187;50.778;6.142;2023-09-08T00:05:10;3.70;;;3.30;;
12248;SDS011;6187;50.778;6.142;2023-09-08T00:07:38;3.73;;;3.33;;
12248;SDS011;6187;50.778;6.142;2023-09-08T00:10:07;3.83;;;3.53;;
12248;SDS011;6187;50.778;6.142;2023-09-08T00:12:36;4.00;;;3.50;;
12248;SDS011;6187;50.778;6.142;2023-09-08T00:15:06;4.03;;;3.30;;
12248;SDS011;6187;50.778;6.142;2023-09-08T00:17:35;4.07;;;3.50;;
12248;SDS011;6187;50.778;6.142;2023-09-08T00:20:05;3.53;;;3.23;;
12248;SDS011;6187;50.778;6.142;2023-09-08T00:22:35;4.10;;;3.70;;
12248;SDS011;6187;50.778;6.142;2023-09-08T00:25:05;3.63;;;3.30;;
12248;SDS011;6187;50.778;6.142;2023-09-08T00:27:33;3.90;;;3.40;;
12248;SDS011;6187;50.778;6.142;2023-09-08T00:30:02;3.70;;;3.40;;
12248;SDS011;6187;50.778;6.142;2023-09-08T00:32:32;3.73;;;3.43;;
12248;SDS011;6187;50.778;6.142;2023-09-08T00:35:01;3.57;;;3.27;;
12248;SDS011;6187;50.778;6.142;2023-09-08T00:37:30;3.63;;;3.33;;
12248;SDS011;6187;50.778;6.142;2023-09-08T00:39:58;4.30;;;3.90;;
12248;SDS011;6187;50.778;6.142;2023-09-08T00:42:27;4.10;;;3.20;;
12248;SDS011;6187;50.778;6.142;2023-09-08T00:44:55;4.30;;;3.53;;
12248;SDS011;6187;50.778;6.142;2023-09-08T00:47:24;4.17;;;3.43;;
12248;SDS011;6187;50.778;6.142;2023-09-08T00:49:54;4.23;;;3.20;;
12248;SDS011;6187;50.778;6.142;2023-09-08T00:52:23;3.30;;;3.00;;
12248;SDS011;6187;50.778;6.142;2023-09-08T00:54:57;3.77;;;3.33;;
12248;SDS011;6187;50.778;6.142;2023-09-08T00:57:26;3.70;;;3.40;;
12248;SDS011;6187;50.778;6.142;2023-09-08T00:59:55;3.60;;;3.30;;
12248;SDS011;6187;50.778;6.142;2023-09-08T01:02:24;3.40;;;3.00;;
12248;SDS011;6187;50.778;6.142;2023-09-08T01:04:52;4.00;;;3.67;;
12248;SDS011;6187;50.778;6.142;2023-09-08T01:07:22;3.67;;;3.37;;
12248;SDS011;6187;50.778;6.142;2023-09-08T01:09:51;3.77;;;3.40;;
12248;SDS011;6187;50.778;6.142;2023-09-08T01:12:20;3.60;;;3.30;;
12248;SDS011;6187;50.778;6.142;2023-09-08T01:14:49;4.33;;;3.73;;
12248;SDS011;6187;50.778;6.142;2023-09-08T01:17:17;3.77;;;3.43;;
12248;SDS011;6187;50.778;6.142;2023-09-08T01:19:46;3.83;;;3.43;;
12248;SDS011;6187;50.778;6.142;2023-09-08T01:22:33;3.93;;;3.53;;
12248;SDS011;6187;50.778;6.142;2023-09-08T01:25:17;3.47;;;3.17;;
12248;SDS011;6187;50.778;6.142;2023-09-08T01:27:48;3.80;;;3.40;;
12248;SDS011;6187;50.778;6.142;2023-09-08T01:30:18;4.33;;;3.70;;
12248;SDS011;6187;50.778;6.142;2023-09-08T01:32:47;3.67;;;3.37;;
12248;SDS011;6187;50.778;6.142;2023-09-08T01:35:16;4.10;;;3.50;;
12248;SDS011;6187;50.778;6.142;2023-09-08T01:37:45;4.53;;;3.43;;
12248;SDS011;6187;50.778;6.142;2023-09-08T01:40:15;3.70;;;3.37;;
12248;SDS011;6187;50.778;6.142;2023-09-08T01:42:45;4.67;;;3.90;;
12248;SDS011;6187;50.778;6.142;2023-09-08T01:45:14;4.20;;;3.80;;
12248;SDS011;6187;50.778;6.142;2023-09-08T01:47:42;4.20;;;3.70;;
12248;SDS011;6187;50.778;6.142;2023-09-08T01:50:11;4.10;;;3.70;;
12248;SDS011;6187;50.778;6.142;2023-09-08T01:52:40;3.80;;;3.40;;
12248;SDS011;6187;50.778;6.142;2023-09-08T01:55:08;4.30;;;3.90;;
12248;SDS011;6187;50.778;6.142;2023-09-08T01:57:40;4.57;;;4.17;;
12248;SDS011;6187;50.778;6.142;2023-09-08T02:00:09;3.67;;;3.37;;
12248;SDS011;6187;50.778;6.142;2023-09-08T02:02:37;4.60;;;3.70;;
12248;SDS011;6187;50.778;6.142;2023-09-08T02:05:06;3.90;;;3.57;;
12248;SDS011;6187;50.778;6.142;2023-09-08T02:07:35;4.27;;;3.80;;
12248;SDS011;6187;50.778;6.142;2023-09-08T02:10:04;4.80;;;4.03;;
12248;SDS011;6187;50.778;6.142;2023-09-08T02:12:33;4.27;;;3.67;;
12248;SDS011;6187;50.778;6.142;2023-09-08T02:15:03;4.30;;;3.90;;
12248;SDS011;6187;50.778;6.142;2023-09-08T02:17:32;4.07;;;3.67;;
12248;SDS011;6187;50.778;6.142;2023-09-08T02:20:01;4.40;;;4.00;;
12248;SDS011;6187;50.778;6.142;2023-09-08T02:22:30;4.13;;;3.57;;
12248;SDS011;6187;50.778;6.142;2023-09-08T02:24:59;4.30;;;3.80;;
12248;SDS011;6187;50.778;6.142;2023-09-08T02:27:27;4.00;;;3.60;;
12248;SDS011;6187;50.778;6.142;2023-09-08T02:29:56;4.10;;;3.70;;
12248;SDS011;6187;50.778;6.142;2023-09-08T02:32:26;3.83;;;3.43;;
12248;SDS011;6187;50.778;6.142;2023-09-08T02:34:54;4.53;;;3.83;;
12248;SDS011;6187;50.778;6.142;2023-09-08T02:37:23;4.23;;;3.83;;
12248;SDS011;6187;50.778;6.142;2023-09-08T02:39:52;4.20;;;3.80;;
12248;SDS011;6187;50.778;6.142;2023-09-08T02:42:20;4.27;;;3.83;;
12248;SDS011;6187;50.778;6.142;2023-09-08T02:44:49;4.33;;;3.77;;
12248;SDS011;6187;50.778;6.142;2023-09-08T02:47:18;4.10;;;3.70;;
12248;SDS011;6187;50.778;6.142;2023-09-08T02:49:48;3.83;;;3.43;;
12248;SDS011;6187;50.778;6.142;2023-09-08T02:52:16;4.27;;;3.90;;
12248;SDS011;6187;50.778;6.142;2023-09-08T02:54:46;4.13;;;3.73;;
12248;SDS011;6187;50.778;6.142;2023-09-08T02:57:14;4.97;;;4.00;;
12248;SDS011;6187;50.778;6.142;2023-09-08T02:59:47;4.00;;;3.60;;
12248;SDS011;6187;50.778;6.142;2023-09-08T03:02:17;4.03;;;3.63;;
12248;SDS011;6187;50.778;6.142;2023-09-08T03:04:48;4.13;;;3.73;;
12248;SDS011;6187;50.778;6.142;2023-09-08T03:07:17;4.70;;;4.07;;
12248;SDS011;6187;50.778;6.142;2023-09-08T03:09:45;4.40;;;4.00;;
12248;SDS011;6187;50.778;6.142;2023-09-08T03:12:14;3.80;;;3.50;;
12248;SDS011;6187;50.778;6.142;2023-09-08T03:14:43;3.97;;;3.57;;
12248;SDS011;6187;50.778;6.142;2023-09-08T03:17:13;4.10;;;3.70;;
12248;SDS011;6187;50.778;6.142;2023-09-08T03:19:44;4.07;;;3.67;;
12248;SDS011;6187;50.778;6.142;2023-09-08T03:22:14;4.37;;;3.73;;
12248;SDS011;6187;50.778;6.142;2023-09-08T03:24:43;4.43;;;3.70;;
12248;SDS011;6187;50.778;6.142;2023-09-08T03:27:11;4.43;;;3.70;;
12248;SDS011;6187;50.778;6.142;2023-09-08T03:29:40;3.97;;;3.63;;
12248;SDS011;6187;50.778;6.142;2023-09-08T03:32:09;4.10;;;3.50;;
12248;SDS011;6187;50.778;6.142;2023-09-08T03:34:38;4.07;;;3.67;;
12248;SDS011;6187;50.778;6.142;2023-09-08T03:37:06;4.90;;;4.00;;
12248;SDS011;6187;50.778;6.142;2023-09-08T03:39:36;4.10;;;3.70;;
12248;SDS011;6187;50.778;6.142;2023-09-08T03:42:05;4.33;;;3.93;;
12248;SDS011;6187;50.778;6.142;2023-09-08T03:44:34;4.00;;;3.40;;
12248;SDS011;6187;50.778;6.142;2023-09-08T03:47:03;3.83;;;3.50;;
12248;SDS011;6187;50.778;6.142;2023-09-08T03:49:31;4.93;;;4.37;;
12248;SDS011;6187;50.778;6.142;2023-09-08T03:52:00;4.00;;;3.60;;
12248;SDS011;6187;50.778;6.142;2023-09-08T03:54:29;4.27;;;3.77;;
12248;SDS011;6187;50.778;6.142;2023-09-08T03:56:59;3.97;;;3.60;;
12248;SDS011;6187;50.778;6.142;2023-09-08T03:59:28;4.67;;;4.10;;
12248;SDS011;6187;50.778;6.142;2023-09-08T04:01:57;4.17;;;3.77;;
12248;SDS011;6187;50.778;6.142;2023-09-08T04:04:27;4.17;;;3.77;;
12248;SDS011;6187;50.778;6.142;2023-09-08T04:06:56;4.67;;;4.27;;
12248;SDS011;6187;50.778;6.142;2023-09-08T04:09:24;4.93;;;4.03;;
12248;SDS011;6187;50.778;6.142;2023-09-08T04:11:54;3.97;;;3.63;;
12248;SDS011;6187;50.778;6.142;2023-09-08T04:14:24;3.97;;;3.60;;
12248;SDS011;6187;50.778;6.142;2023-09-08T04:16:54;4.13;;;3.73;;
12248;SDS011;6187;50.778;6.142;2023-09-08T04:19:23;4.73;;;3.90;;
12248;SDS011;6187;50.778;6.142;2023-09-08T04:21:52;4.10;;;3.70;;
12248;SDS011;6187;50.778;6.142;2023-09-08T04:24:20;4.67;;;4.17;;
12248;SDS011;6187;50.778;6.142;2023-09-08T04:26:49;4.53;;;4.10;;
12248;SDS011;6187;50.778;6.142;2023-09-08T04:29:18;4.83;;;4.40;;
12248;SDS011;6187;50.778;6.142;2023-09-08T04:31:48;5.20;;;4.37;;
12248;SDS011;6187;50.778;6.142;2023-09-08T04:34:16;5.77;;;4.03;;
12248;SDS011;6187;50.778;6.142;2023-09-08T04:36:45;5.00;;;4.33;;
12248;SDS011;6187;50.778;6.142;2023-09-08T04:39:14;4.37;;;3.97;;
12248;SDS011;6187;50.778;6.142;2023-09-08T04:41:42;4.93;;;4.20;;
12248;SDS011;6187;50.778;6.142;2023-09-08T04:44:11;4.13;;;3.73;;
12248;SDS011;6187;50.778;6.142;2023-09-08T04:46:39;4.50;;;4.10;;
12248;SDS011;6187;50.778;6.142;2023-09-08T04:49:09;4.40;;;4.00;;
12248;SDS011;6187;50.778;6.142;2023-09-08T04:51:38;5.13;;;3.93;;
12248;SDS011;6187;50.778;6.142;2023-09-08T04:54:07;4.93;;;3.83;;
12248;SDS011;6187;50.778;6.142;2023-09-08T04:56:36;4.43;;;3.87;;
12248;SDS011;6187;50.778;6.142;2023-09-08T04:59:04;5.33;;;4.30;;
12248;SDS011;6187;50.778;6.142;2023-09-08T05:01:34;4.10;;;3.70;;
12248;SDS011;6187;50.778;6.142;2023-09-08T05:04:04;4.80;;;4.30;;
12248;SDS011;6187;50.778;6.142;2023-09-08T05:06:34;4.07;;;3.60;;
12248;SDS011;6187;50.778;6.142;2023-09-08T05:09:02;4.40;;;4.00;;
12248;SDS011;6187;50.778;6.142;2023-09-08T05:11:31;4.20;;;3.80;;
12248;SDS011;6187;50.778;6.142;2023-09-08T05:14:00;4.50;;;3.63;;
12248;SDS011;6187;50.778;6.142;2023-09-08T05:16:28;4.33;;;3.90;;
12248;SDS011;6187;50.778;6.142;2023-09-08T05:19:06;4.13;;;3.70;;
12248;SDS011;6187;50.778;6.142;2023-09-08T05:21:36;5.50;;;3.67;;
12248;SDS011;6187;50.778;6.142;2023-09-08T05:24:05;4.37;;;3.70;;
12248;SDS011;6187;50.778;6.142;2023-09-08T05:26:35;4.20;;;3.87;;
12248;SDS011;6187;50.778;6.142;2023-09-08T05:29:04;4.87;;;4.20;;
12248;SDS011;6187;50.778;6.142;2023-09-08T05:31:33;4.53;;;4.00;;
12248;SDS011;6187;50.778;6.142;2023-09-08T05:34:01;3.80;;;3.50;;
12248;SDS011;6187;50.778;6.142;2023-09-08T05:36:30;4.47;;;4.07;;
12248;SDS011;6187;50.778;6.142;2023-09-08T05:39:03;4.27;;;3.63;;
12248;SDS011;6187;50.778;6.142;2023-09-08T05:41:32;5.10;;;3.97;;
12248;SDS011;6187;50.778;6.142;2023-09-08T05:44:01;4.00;;;3.60;;
12248;SDS011;6187;50.778;6.142;2023-09-08T05:46:30;4.13;;;3.73;;
12248;SDS011;6187;50.778;6.142;2023-09-08T05:48:59;4.53;;;3.73;;
12248;SDS011;6187;50.778;6.142;2023-09-08T05:51:27;4.53;;;4.13;;
12248;SDS011;6187;50.778;6.142;2023-09-08T05:53:56;5.33;;;4.40;;
12248;SDS011;6187;50.778;6.142;2023-09-08T05:56:29;4.50;;;4.10;;
12248;SDS011;6187;50.778;6.142;2023-09-08T05:58:58;4.53;;;4.10;;
12248;SDS011;6187;50.778;6.142;2023-09-08T06:01:27;5.60;;;4.47;;
12248;SDS011;6187;50.778;6.142;2023-09-08T06:03:56;8.13;;;6.50;;
12248;SDS011;6187;50.778;6.142;2023-09-08T06:06:25;8.33;;;6.50;;
12248;SDS011;6187;50.778;6.142;2023-09-08T06:08:54;7.07;;;5.50;;
12248;SDS011;6187;50.778;6.142;2023-09-08T06:11:23;7.97;;;6.20;;
12248;SDS011;6187;50.778;6.142;2023-09-08T06:13:53;5.40;;;4.90;;
12248;SDS011;6187;50.778;6.142;2023-09-08T06:16:25;5.50;;;4.70;;
12248;SDS011;6187;50.778;6.142;2023-09-08T06:18:54;5.30;;;4.80;;
12248;SDS011;6187;50.778;6.142;2023-09-08T06:21:23;6.53;;;5.27;;
12248;SDS011;6187;50.778;6.142;2023-09-08T06:23:51;5.30;;;4.77;;
12248;SDS011;6187;50.778;6.142;2023-09-08T06:26:20;5.90;;;4.90;;
12248;SDS011;6187;50.778;6.142;2023-09-08T06:28:49;6.30;;;5.20;;
12248;SDS011;6187;50.778;6.142;2023-09-08T06:31:19;6.67;;;5.30;;
12248;SDS011;6187;50.778;6.142;2023-09-08T06:33:48;6.70;;;5.60;;
12248;SDS011;6187;50.778;6.142;2023-09-08T06:36:18;8.07;;;5.97;;
12248;SDS011;6187;50.778;6.142;2023-09-08T06:38:48;8.10;;;6.70;;
12248;SDS011;6187;50.778;6.142;2023-09-08T06:41:16;8.03;;;7.23;;
12248;SDS011;6187;50.778;6.142;2023-09-08T06:43:45;9.57;;;6.57;;
12248;SDS011;6187;50.778;6.142;2023-09-08T06:46:14;7.57;;;6.77;;
12248;SDS011;6187;50.778;6.142;2023-09-08T06:48:45;6.63;;;5.93;;
12248;SDS011;6187;50.778;6.142;2023-09-08T06:51:13;6.13;;;5.20;;
12248;SDS011;6187;50.778;6.142;2023-09-08T06:53:42;6.97;;;5.87;;
12248;SDS011;6187;50.778;6.142;2023-09-08T06:56:11;6.27;;;5.67;;
12248;SDS011;6187;50.778;6.142;2023-09-08T06:58:40;6.87;;;5.33;;
12248;SDS011;6187;50.778;6.142;2023-09-08T07:01:09;6.50;;;5.53;;
12248;SDS011;6187;50.778;6.142;2023-09-08T07:03:37;5.53;;;4.93;;
12248;SDS011;6187;50.778;6.142;2023-09-08T07:06:08;5.17;;;4.13;;
12248;SDS011;6187;50.778;6.142;2023-09-08T07:08:36;4.93;;;4.23;;
12248;SDS011;6187;50.778;6.142;2023-09-08T07:11:05;4.97;;;4.43;;
12248;SDS011;6187;50.778;6.142;2023-09-08T07:13:34;4.63;;;4.23;;
12248;SDS011;6187;50.778;6.142;2023-09-08T07:16:03;4.23;;;3.80;;
12248;SDS011;6187;50.778;6.142;2023-09-08T07:18:31;4.57;;;4.00;;
12248;SDS011;6187;50.778;6.142;2023-09-08T07:21:03;4.30;;;3.80;;
12248;SDS011;6187;50.778;6.142;2023-09-08T07:23:34;3.77;;;3.43;;
12248;SDS011;6187;50.778;6.142;2023-09-08T07:26:03;4.13;;;3.70;;
12248;SDS011;6187;50.778;6.142;2023-09-08T07:28:32;5.07;;;4.33;;
12248;SDS011;6187;50.778;6.142;2023-09-08T07:31:01;3.60;;;3.30;;
12248;SDS011;6187;50.778;6.142;2023-09-08T07:33:30;4.43;;;4.03;;
12248;SDS011;6187;50.778;6.142;2023-09-08T07:36:04;4.03;;;3.63;;
12248;SDS011;6187;50.778;6.142;2023-09-08T07:38:34;4.33;;;3.77;;
12248;SDS011;6187;50.778;6.142;2023-09-08T07:41:03;3.33;;;3.03;;
12248;SDS011;6187;50.778;6.142;2023-09-08T07:43:32;4.10;;;3.70;;
12248;SDS011;6187;50.778;6.142;2023-09-08T07:46:00;4.00;;;3.60;;
12248;SDS011;6187;50.778;6.142;2023-09-08T07:48:30;3.60;;;3.30;;
12248;SDS011;6187;50.778;6.142;2023-09-08T07:50:59;3.80;;;3.50;;
12248;SDS011;6187;50.778;6.142;2023-09-08T07:53:28;3.67;;;3.27;;
12248;SDS011;6187;50.778;6.142;2023-09-08T07:55:58;3.97;;;3.57;;
12248;SDS011;6187;50.778;6.142;2023-09-08T07:58:28;3.40;;;3.10;;
12248;SDS011;6187;50.778;6.142;2023-09-08T08:00:56;3.80;;;3.50;;
12248;SDS011;6187;50.778;6.142;2023-09-08T08:03:25;3.47;;;3.17;;
12248;SDS011;6187;50.778;6.142;2023-09-08T08:05:55;3.83;;;3.53;;
12248;SDS011;6187;50.778;6.142;2023-09-08T08:08:24;3.17;;;2.97;;
12248;SDS011;6187;50.778;6.142;2023-09-08T08:10:53;3.30;;;3.00;;
12248;SDS011;6187;50.778;6.142;2023-09-08T08:13:23;3.88;;;3.55;;
12248;SDS011;6187;50.778;6.142;2023-09-08T08:15:52;4.25;;;3.13;;
12248;SDS011;6187;50.778;6.142;2023-09-08T08:18:20;4.13;;;3.53;;
12248;SDS011;6187;50.778;6.142;2023-09-08T08:20:49;3.70;;;3.15;;
12248;SDS011;6187;50.778;6.142;2023-09-08T08:23:18;3.45;;;3.15;;
12248;SDS011;6187;50.778;6.142;2023-09-08T08:25:48;3.05;;;2.80;;
12248;SDS011;6187;50.778;6.142;2023-09-08T08:28:17;3.00;;;2.67;;
12248;SDS011;6187;50.778;6.142;2023-09-08T08:30:47;3.10;;;2.90;;
12248;SDS011;6187;50.778;6.142;2023-09-08T08:33:16;3.25;;;2.95;;
12248;SDS011;6187;50.778;6.142;2023-09-08T08:35:48;3.85;;;3.03;;
12248;SDS011;6187;50.778;6.142;2023-09-08T08:38:17;3.90;;;2.80;;
12248;SDS011;6187;50.778;6.142;2023-09-08T08:40:46;2.85;;;2.65;;
12248;SDS011;6187;50.778;6.142;2023-09-08T08:43:14;2.80;;;2.60;;
12248;SDS011;6187;50.778;6.142;2023-09-08T08:45:43;2.70;;;2.50;;
12248;SDS011;6187;50.778;6.142;2023-09-08T08:48:14;2.67;;;2.45;;
12248;SDS011;6187;50.778;6.142;2023-09-08T08:50:43;2.88;;;2.50;;
12248;SDS011;6187;50.778;6.142;2023-09-08T08:53:12;2.50;;;2.30;;
12248;SDS011;6187;50.778;6.142;2023-09-08T08:55:41;2.38;;;2.17;;
12248;SDS011;6187;50.778;6.142;2023-09-08T08:58:10;2.88;;;2.55;;
12248;SDS011;6187;50.778;6.142;2023-09-08T09:00:41;4.07;;;2.58;;
12248;SDS011;6187;50.778;6.142;2023-09-08T09:03:11;2.58;;;2.30;;
12248;SDS011;6187;50.778;6.142;2023-09-08T09:05:43;2.97;;;2.67;;
12248;SDS011;6187;50.778;6.142;2023-09-08T09:08:14;3.13;;;2.67;;
12248;SDS011;6187;50.778;6.142;2023-09-08T09:10:45;2.78;;;2.45;;
12248;SDS011;6187;50.778;6.142;2023-09-08T09:13:13;4.03;;;2.95;;
12248;SDS011;6187;50.778;6.142;2023-09-08T09:15:42;3.15;;;2.85;;
12248;SDS011;6187;50.778;6.142;2023-09-08T09:18:11;3.50;;;2.90;;
12248;SDS011;6187;50.778;6.142;2023-09-08T09:20:41;3.03;;;2.78;;
12248;SDS011;6187;50.778;6.142;2023-09-08T09:23:11;3.45;;;2.80;;
12248;SDS011;6187;50.778;6.142;2023-09-08T09:25:40;3.10;;;2.85;;
12248;SDS011;6187;50.778;6.142;2023-09-08T09:28:10;3.15;;;2.45;;
12248;SDS011;6187;50.778;6.142;2023-09-08T09:30:48;3.17;;;2.88;;
12248;SDS011;6187;50.778;6.142;2023-09-08T09:33:18;2.67;;;2.47;;
12248;SDS011;6187;50.778;6.142;2023-09-08T09:35:47;2.88;;;2.60;;
12248;SDS011;6187;50.778;6.142;2023-09-08T09:38:18;2.47;;;2.28;;
12248;SDS011;6187;50.778;6.142;2023-09-08T09:40:48;2.67;;;2.47;;
12248;SDS011;6187;50.778;6.142;2023-09-08T09:43:17;3.28;;;2.72;;
12248;SDS011;6187;50.778;6.142;2023-09-08T09:45:49;2.90;;;2.70;;
12248;SDS011;6187;50.778;6.142;2023-09-08T09:48:19;2.85;;;2.35;;
12248;SDS011;6187;50.778;6.142;2023-09-08T09:50:48;2.47;;;2.28;;
12248;SDS011;6187;50.778;6.142;2023-09-08T09:53:16;3.28;;;2.50;;
12248;SDS011;6187;50.778;6.142;2023-09-08T09:55:47;3.03;;;2.40;;
12248;SDS011;6187;50.778;6.142;2023-09-08T09:58:15;3.47;;;2.70;;
12248;SDS011;6187;50.778;6.142;2023-09-08T10:00:44;3.20;;;2.90;;
12248;SDS011;6187;50.778;6.142;2023-09-08T10:03:15;2.63;;;2.42;;
12248;SDS011;6187;50.778;6.142;2023-09-08T10:05:45;3.00;;;2.70;;
12248;SDS011;6187;50.778;6.142;2023-09-08T10:08:15;2.88;;;2.55;;
12248;SDS011;6187;50.778;6.142;2023-09-08T10:10:44;3.00;;;2.70;;
12248;SDS011;6187;50.778;6.142;2023-09-08T10:13:16;2.88;;;2.67;;
12248;SDS011;6187;50.778;6.142;2023-09-08T10:15:46;2.58;;;2.38;;
12248;SDS011;6187;50.778;6.142;2023-09-08T10:18:16;2.83;;;2.40;;
12248;SDS011;6187;50.778;6.142;2023-09-08T10:20:48;2.70;;;2.50;;
12248;SDS011;6187;50.778;6.142;2023-09-08T10:23:19;2.97;;;2.72;;
12248;SDS011;6187;50.778;6.142;2023-09-08T10:25:50;3.40;;;2.70;;
12248;SDS011;6187;50.778;6.142;2023-09-08T10:28:22;3.63;;;2.53;;
12248;SDS011;6187;50.778;6.142;2023-09-08T10:30:51;3.75;;;2.60;;
12248;SDS011;6187;50.778;6.142;2023-09-08T10:33:20;3.00;;;2.70;;
12248;SDS011;6187;50.778;6.142;2023-09-08T10:35:50;2.70;;;2.45;;
12248;SDS011;6187;50.778;6.142;2023-09-08T10:38:23;2.50;;;2.30;;
12248;SDS011;6187;50.778;6.142;2023-09-08T10:40:52;2.58;;;2.38;;
12248;SDS011;6187;50.778;6.142;2023-09-08T10:43:20;2.60;;;2.30;;
12248;SDS011;6187;50.778;6.142;2023-09-08T10:45:50;2.63;;;2.42;;
12248;SDS011;6187;50.778;6.142;2023-09-08T10:48:19;3.40;;;2.50;;
12248;SDS011;6187;50.778;6.142;2023-09-08T10:50:48;3.40;;;3.08;;
12248;SDS011;6187;50.778;6.142;2023-09-08T10:53:17;3.35;;;2.50;;
12248;SDS011;6187;50.778;6.142;2023-09-08T10:55:48;3.55;;;2.78;;
12248;SDS011;6187;50.778;6.142;2023-09-08T10:58:38;3.55;;;3.20;;
12248;SDS011;6187;50.778;6.142;2023-09-08T11:01:15;3.13;;;2.53;;
12248;SDS011;6187;50.778;6.142;2023-09-08T11:03:44;4.05;;;2.83;;
12248;SDS011;6187;50.778;6.142;2023-09-08T11:06:15;2.92;;;2.65;;
12248;SDS011;6187;50.778;6.142;2023-09-08T11:08:44;2.83;;;2.63;;
12248;SDS011;6187;50.778;6.142;2023-09-08T11:11:14;3.10;;;2.58;;
12248;SDS011;6187;50.778;6.142;2023-09-08T11:13:43;3.35;;;2.90;;
12248;SDS011;6187;50.778;6.142;2023-09-08T11:16:14;3.00;;;2.70;;
12248;SDS011;6187;50.778;6.142;2023-09-08T11:18:50;3.20;;;2.60;;
12248;SDS011;6187;50.778;6.142;2023-09-08T11:21:19;2.95;;;2.55;;
12248;SDS011;6187;50.778;6.142;2023-09-08T11:23:48;3.00;;;2.38;;
12248;SDS011;6187;50.778;6.142;2023-09-08T11:26:16;3.28;;;2.95;;
12248;SDS011;6187;50.778;6.142;2023-09-08T11:28:45;3.65;;;3.05;;
12248;SDS011;6187;50.778;6.142;2023-09-08T11:31:17;3.35;;;3.05;;
12248;SDS011;6187;50.778;6.142;2023-09-08T11:33:45;2.85;;;2.65;;
12248;SDS011;6187;50.778;6.142;2023-09-08T11:36:17;3.00;;;2.70;;
12248;SDS011;6187;50.778;6.142;2023-09-08T11:38:46;2.90;;;2.70;;
12248;SDS011;6187;50.778;6.142;2023-09-08T11:41:14;3.70;;;2.85;;
12248;SDS011;6187;50.778;6.142;2023-09-08T11:43:43;3.47;;;3.17;;
12248;SDS011;6187;50.778;6.142;2023-09-08T11:46:11;2.97;;;2.78;;
12248;SDS011;6187;50.778;6.142;2023-09-08T11:48:43;3.00;;;2.70;;
12248;SDS011;6187;50.778;6.142;2023-09-08T11:51:12;2.88;;;2.67;;
12248;SDS011;6187;50.778;6.142;2023-09-08T11:53:41;2.58;;;2.38;;
12248;SDS011;6187;50.778;6.142;2023-09-08T11:56:09;3.72;;;3.05;;
12248;SDS011;6187;50.778;6.142;2023-09-08T11:58:38;4.13;;;2.60;;
12248;SDS011;6187;50.778;6.142;2023-09-08T12:01:07;4.15;;;3.17;;
12248;SDS011;6187;50.778;6.142;2023-09-08T12:03:48;4.07;;;3.10;;
12248;SDS011;6187;50.778;6.142;2023-09-08T12:06:19;3.00;;;2.70;;
12248;SDS011;6187;50.778;6.142;2023-09-08T12:08:48;3.75;;;3.28;;
12248;SDS011;6187;50.778;6.142;2023-09-08T12:11:16;3.30;;;3.00;;
12248;SDS011;6187;50.778;6.142;2023-09-08T12:13:45;2.90;;;2.65;;
12248;SDS011;6187;50.778;6.142;2023-09-08T12:16:17;3.17;;;2.58;;
12248;SDS011;6187;50.778;6.142;2023-09-08T12:18:46;3.90;;;3.50;;
12248;SDS011;6187;50.778;6.142;2023-09-08T12:21:16;3.08;;;2.80;;
12248;SDS011;6187;50.778;6.142;2023-09-08T12:23:48;3.30;;;3.00;;
12248;SDS011;6187;50.778;6.142;2023-09-08T12:26:17;4.25;;;2.88;;
12248;SDS011;6187;50.778;6.142;2023-09-08T12:28:46;3.28;;;2.92;;
12248;SDS011;6187;50.778;6.142;2023-09-08T12:31:15;4.47;;;3.35;;
12248;SDS011;6187;50.778;6.142;2023-09-08T12:33:44;4.82;;;3.47;;
12248;SDS011;6187;50.778;6.142;2023-09-08T12:36:13;3.00;;;2.80;;
12248;SDS011;6187;50.778;6.142;2023-09-08T12:38:47;3.38;;;3.08;;
12248;SDS011;6187;50.778;6.142;2023-09-08T12:41:16;2.97;;;2.78;;
12248;SDS011;6187;50.778;6.142;2023-09-08T12:43:45;3.80;;;3.05;;
12248;SDS011;6187;50.778;6.142;2023-09-08T12:46:16;3.22;;;2.90;;
12248;SDS011;6187;50.778;6.142;2023-09-08T12:48:45;3.20;;;2.95;;
12248;SDS011;6187;50.778;6.142;2023-09-08T12:51:14;4.38;;;3.35;;
12248;SDS011;6187;50.778;6.142;2023-09-08T12:53:42;3.60;;;3.30;;
12248;SDS011;6187;50.778;6.142;2023-09-08T12:56:12;3.95;;;3.55;;
12248;SDS011;6187;50.778;6.142;2023-09-08T12:58:41;3.05;;;2.85;;
12248;SDS011;6187;50.778;6.142;2023-09-08T13:01:10;4.20;;;3.40;;
12248;SDS011;6187;50.778;6.142;2023-09-08T13:03:38;3.20;;;2.90;;
12248;SDS011;6187;50.778;6.142;2023-09-08T13:06:07;2.97;;;2.72;;
12248;SDS011;6187;50.778;6.142;2023-09-08T13:08:35;3.22;;;2.92;;
12248;SDS011;6187;50.778;6.142;2023-09-08T13:11:04;3.30;;;3.00;;
12248;SDS011;6187;50.778;6.142;2023-09-08T13:13:35;3.42;;;3.13;;
12248;SDS011;6187;50.778;6.142;2023-09-08T13:16:03;3.50;;;3.10;;
12248;SDS011;6187;50.778;6.142;2023-09-08T13:18:32;3.28;;;3.08;;
12248;SDS011;6187;50.778;6.142;2023-09-08T13:21:04;4.32;;;3.92;;
12248;SDS011;6187;50.778;6.142;2023-09-08T13:23:33;4.30;;;3.90;;
12248;SDS011;6187;50.778;6.142;2023-09-08T13:26:02;3.88;;;3.58;;
12248;SDS011;6187;50.778;6.142;2023-09-08T13:28:30;3.40;;;3.10;;
12248;SDS011;6187;50.778;6.142;2023-09-08T13:31:01;6.13;;;3.13;;
12248;SDS011;6187;50.778;6.142;2023-09-08T13:33:30;3.35;;;3.05;;
12248;SDS011;6187;50.778;6.142;2023-09-08T13:35:59;3.47;;;3.15;;
12248;SDS011;6187;50.778;6.142;2023-09-08T13:38:28;3.22;;;2.90;;
12248;SDS011;6187;50.778;6.142;2023-09-08T13:40:56;3.33;;;3.03;;
12248;SDS011;6187;50.778;6.142;2023-09-08T13:43:25;3.63;;;2.70;;
12248;SDS011;6187;50.778;6.142;2023-09-08T13:45:54;3.30;;;3.00;;
12248;SDS011;6187;50.778;6.142;2023-09-08T13:48:24;5.68;;;3.45;;
12248;SDS011;6187;50.778;6.142;2023-09-08T13:50:54;3.35;;;3.08;;
12248;SDS011;6187;50.778;6.142;2023-09-08T13:53:25;4.20;;;3.75;;
12248;SDS011;6187;50.778;6.142;2023-09-08T13:56:11;3.40;;;3.05;;
12248;SDS011;6187;50.778;6.142;2023-09-08T13:58:41;3.58;;;3.28;;
12248;SDS011;6187;50.778;6.142;2023-09-08T14:01:16;3.40;;;3.10;;
12248;SDS011;6187;50.778;6.142;2023-09-08T14:03:48;3.75;;;3.40;;
12248;SDS011;6187;50.778;6.142;2023-09-08T14:06:21;3.03;;;2.78;;
12248;SDS011;6187;50.778;6.142;2023-09-08T14:08:56;3.45;;;3.15;;
12248;SDS011;6187;50.778;6.142;2023-09-08T14:11:27;3.50;;;3.20;;
12248;SDS011;6187;50.778;6.142;2023-09-08T14:14:16;4.25;;;3.70;;
12248;SDS011;6187;50.778;6.142;2023-09-08T14:16:45;3.35;;;3.05;;
12248;SDS011;6187;50.778;6.142;2023-09-08T14:19:14;3.30;;;3.00;;
12248;SDS011;6187;50.778;6.142;2023-09-08T14:21:43;3.50;;;3.00;;
12248;SDS011;6187;50.778;6.142;2023-09-08T14:24:12;3.53;;;3.22;;
12248;SDS011;6187;50.778;6.142;2023-09-08T14:26:40;3.60;;;3.30;;
12248;SDS011;6187;50.778;6.142;2023-09-08T14:29:09;4.68;;;3.45;;
12248;SDS011;6187;50.778;6.142;2023-09-08T14:31:38;3.50;;;3.20;;
12248;SDS011;6187;50.778;6.142;2023-09-08T14:34:06;3.90;;;3.28;;
12248;SDS011;6187;50.778;6.142;2023-09-08T14:36:36;3.65;;;3.35;;
12248;SDS011;6187;50.778;6.142;2023-09-08T14:39:05;3.60;;;3.30;;
12248;SDS011;6187;50.778;6.142;2023-09-08T14:41:34;3.65;;;3.35;;
12248;SDS011;6187;50.778;6.142;2023-09-08T14:44:02;3.75;;;3.33;;
12248;SDS011;6187;50.778;6.142;2023-09-08T14:46:31;3.95;;;3.55;;
12248;SDS011;6187;50.778;6.142;2023-09-08T14:49:00;3.20;;;3.00;;
12248;SDS011;6187;50.778;6.142;2023-09-08T14:51:29;4.25;;;3.67;;
12248;SDS011;6187;50.778;6.142;2023-09-08T14:53:58;3.67;;;3.38;;
12248;SDS011;6187;50.778;6.142;2023-09-08T14:56:27;3.50;;;3.20;;
12248;SDS011;6187;50.778;6.142;2023-09-08T14:58:56;3.17;;;2.88;;
12248;SDS011;6187;50.778;6.142;2023-09-08T15:01:26;4.55;;;3.67;;
12248;SDS011;6187;50.778;6.142;2023-09-08T15:03:54;3.42;;;3.13;;
12248;SDS011;6187;50.778;6.142;2023-09-08T15:06:23;3.58;;;3.28;;
12248;SDS011;6187;50.778;6.142;2023-09-08T15:08:54;3.80;;;3.38;;
12248;SDS011;6187;50.778;6.142;2023-09-08T15:11:24;3.88;;;3.10;;
12248;SDS011;6187;50.778;6.142;2023-09-08T15:13:52;3.40;;;3.10;;